Latest Weather Observations for Falls Creek

IDV60801

Issued at 2:05 am EST Tuesday 29 July 2014 (issued every 30 minutes, with the page automatically refreshed every 10 minutes)

About weather observations | Map of weather stations | Latest weather observations for VIC | Other Formats
Station Details ID: 083084 Name: FALLS CREEK Lat: -36.87 Lon: 147.28 Height: 1765.0 m
Data from the previous 72 hours. | See also: Recent months at Falls Creek
Date/Time
EST
Temp
°C
App
Temp
°C
Dew
Point
Rel
Hum
%
Delta-T
°C
Wind Press
QNH
hPa
Press
MSL
hPa
Rain
since 9 am
mm
Dir
 
Spd
km/h
Gust
km/h
Spd
kts
Gust
kts
29/02:00am 0.4 -9.9 0.4 100 0.0 NNW 44 61 24 33 1013.7 - 0.0
29/01:30am 0.5 -10.1 0.5 100 0.0 NNW 46 67 25 36 1014.0 - 0.0
29/01:12am 0.5 -10.1 0.5 100 0.0 NNW 46 67 25 36 1014.2 - 0.0
29/01:00am 0.4 -9.9 0.4 100 0.0 NNW 44 57 24 31 1014.3 - 0.0
29/12:38am 0.5 -9.2 0.5 100 0.0 NNW 41 59 22 32 1014.4 - 0.0
29/12:30am 0.4 -9.3 0.4 100 0.0 NNW 41 54 22 29 1014.5 - 0.0
29/12:00am 0.4 -9.3 0.4 100 0.0 NNW 41 56 22 30 1014.5 1017.0 0.0
 
Date/Time
EST
Temp
°C
App
Temp
°C
Dew
Point
Rel
Hum
%
Delta-T
°C
Wind Press
QNH
hPa
Press
MSL
hPa
Rain
since 9 am
mm
Dir
 
Spd
km/h
Gust
km/h
Spd
kts
Gust
kts
28/11:30pm 0.5 -10.5 0.5 100 0.0 NNW 48 67 26 36 1014.5 - 0.0
28/11:00pm 0.6 -10.8 0.6 100 0.0 NNW 50 69 27 37 1014.6 - 0.0
28/10:32pm 0.6 -9.7 0.6 100 0.0 NNW 44 63 24 34 1015.1 - 0.0
28/10:30pm 0.6 -10.0 0.6 100 0.0 NNW 46 63 25 34 1015.0 - 0.0
28/10:03pm 0.7 -9.3 0.7 100 0.0 NNW 43 61 23 33 1015.2 - 0.0
28/10:00pm 0.6 -9.5 0.6 100 0.0 NNW 43 56 23 30 1015.3 - 0.0
28/09:30pm 0.7 -9.5 0.7 100 0.0 NNW 44 65 24 35 1015.1 - 0.0
28/09:13pm 0.6 -8.7 0.6 100 0.0 NNW 39 59 21 32 1015.3 - 0.0
28/09:00pm 0.6 -8.7 0.6 100 0.0 NNW 39 52 21 28 1015.5 1018.0 0.0
28/08:30pm 0.6 -8.3 0.6 100 0.0 NNW 37 54 20 29 1015.8 - 0.0
28/08:00pm 0.6 -8.3 0.6 100 0.0 NNW 37 48 20 26 1015.9 - 0.0
28/07:30pm 0.5 -9.6 0.5 100 0.0 NNW 43 54 23 29 1015.9 - 0.0
28/07:00pm 0.5 -8.4 0.5 100 0.0 NNW 37 52 20 28 1016.4 - 0.0
28/06:38pm 0.4 -7.2 0.4 100 0.0 NNW 30 48 16 26 1016.4 - 0.0
28/06:30pm 0.4 -8.2 0.4 100 0.0 NNW 35 46 19 25 1016.4 - 0.0
28/06:10pm 0.5 -8.1 0.5 100 0.0 NNW 35 54 19 29 1015.9 - 0.0
28/06:00pm 0.6 -7.9 0.6 100 0.0 NNW 35 50 19 27 1015.8 1018.4 0.0
28/05:30pm 0.6 -7.6 0.6 100 0.0 NNW 33 54 18 29 1015.8 - 0.0
28/05:21pm 0.6 -7.6 0.6 100 0.0 NNW 33 54 18 29 1015.8 - 0.0
28/05:00pm 0.6 -7.6 0.6 100 0.0 NNW 33 46 18 25 1015.5 - 0.0
28/04:30pm 0.6 -7.9 0.6 100 0.0 NNW 35 48 19 26 1015.5 - 0.0
28/04:00pm 0.8 -8.1 0.8 100 0.0 NNW 37 54 20 29 1015.5 - 0.0
28/03:36pm 0.7 -8.2 0.7 100 0.0 NNW 37 56 20 30 1015.6 - 0.0
28/03:30pm 0.7 -9.0 0.7 100 0.0 NNW 41 56 22 30 1015.5 - 0.0
28/03:11pm 0.7 -8.6 0.7 100 0.0 NNW 39 63 21 34 1014.9 - 0.0
28/03:00pm 0.7 -8.2 0.7 100 0.0 NNW 37 52 20 28 1015.6 1018.1 0.0
28/02:30pm 0.7 -8.6 0.7 100 0.0 NNW 39 57 21 31 1015.3 - 0.0
28/02:00pm 0.6 -8.7 0.6 100 0.0 NNW 39 57 21 31 1015.1 - 0.0
28/01:30pm 0.2 -9.2 0.2 100 0.0 NNW 39 57 21 31 1015.1 - 0.0
28/01:29pm 0.2 -9.2 0.2 100 0.0 NNW 39 57 21 31 1015.1 - 0.0
28/01:00pm 0.2 -9.2 0.2 100 0.0 NNW 39 52 21 28 1015.7 - 0.0
28/12:30pm 0.1 -8.5 0.1 100 0.0 NNW 35 54 19 29 1016.3 - 0.0
28/12:25pm 0.1 -8.5 0.1 100 0.0 NNW 35 54 19 29 1016.3 - 0.0
28/12:00pm 0.1 -8.5 0.1 100 0.0 NNW 35 50 19 27 1016.9 1019.5 0.0
28/11:43am 0.0 -8.6 0.0 100 0.0 NNW 35 54 19 29 1017.0 - 0.0
28/11:30am -0.1 -9.5 -0.1 100 0.0 NNW 39 52 21 28 1016.9 - 0.0
28/11:00am -0.1 -8.7 -0.1 100 0.0 NNW 35 48 19 26 1017.5 - 0.0
28/10:30am -0.2 -9.2 -0.2 100 0.0 NNW 37 46 20 25 1018.1 - 0.0
28/10:00am -0.3 -9.0 -0.3 100 0.0 NNW 35 48 19 26 1018.2 - 0.0
28/09:39am -0.3 -8.4 -0.3 100 0.0 NNW 32 50 17 27 1018.1 - 0.0
28/09:30am -0.3 -8.4 -0.3 100 0.0 NNW 32 46 17 25 1018.1 - 0.0
28/09:00am -0.3 -9.0 -0.3 100 0.0 NNW 35 50 19 27 1018.2 1020.8 0.0
28/08:30am -0.3 -9.0 -0.3 100 0.0 NNW 35 48 19 26 1018.1 - 0.0
28/08:15am -0.3 -8.4 -0.3 100 0.0 NNW 32 50 17 27 1018.1 - 0.0
28/08:00am -0.3 -8.6 -0.3 100 0.0 NNW 33 43 18 23 1018.3 - 0.0
28/07:30am -0.3 -8.6 -0.3 100 0.0 NNW 33 50 18 27 1018.3 - 0.0
28/07:00am -0.3 -8.0 -0.3 100 0.0 NNW 30 48 16 26 1018.2 - 0.0
28/06:30am -0.3 -8.4 -0.3 100 0.0 NNW 32 46 17 25 1018.1 - 0.0
28/06:00am -0.2 -8.5 -0.2 100 0.0 NNW 33 48 18 26 1018.1 1020.7 0.0
28/05:40am -0.2 -8.3 -0.2 100 0.0 NNW 32 50 17 27 1018.1 - 0.0
28/05:30am -0.2 -8.9 -0.2 100 0.0 NW 35 46 19 25 1018.2 - 0.0
28/05:00am -0.2 -8.9 -0.2 100 0.0 NW 35 54 19 29 1018.2 - 0.0
28/04:56am -0.3 -9.0 -0.3 100 0.0 NW 35 54 19 29 1018.0 - 0.0
28/04:30am -0.3 -8.6 -0.3 100 0.0 NW 33 48 18 26 1018.1 - 0.0
28/04:19am -0.3 -8.4 -0.3 100 0.0 NW 32 50 17 27 1018.1 - 0.0
28/04:00am -0.3 -8.4 -0.3 100 0.0 NW 32 48 17 26 1018.1 - 0.0
28/03:32am -0.3 -8.6 -0.3 100 0.0 NW 33 52 18 28 1018.1 - 0.0
28/03:30am -0.4 -8.5 -0.4 100 0.0 NW 32 43 17 23 1018.2 - 0.0
28/03:05am -0.4 -8.1 -0.4 100 0.0 NW 30 48 16 26 1018.7 - 0.0
28/03:00am -0.4 -7.8 -0.4 100 0.0 NW 28 37 15 20 1018.8 1021.5 0.0
28/02:30am -0.5 -8.3 -0.5 100 0.0 WNW 30 43 16 23 1019.2 - 0.0
28/02:06am -0.5 -8.3 -0.5 100 0.0 NW 30 48 16 26 1019.2 - 0.0
28/02:00am -0.6 -8.7 -0.6 100 0.0 NW 32 48 17 26 1019.3 - 0.0
28/01:30am -0.5 -8.3 -0.5 100 0.0 NW 30 50 16 27 1019.5 - 0.0
28/01:27am -0.5 -7.9 -0.5 100 0.0 NW 28 50 15 27 1019.3 - 0.0
28/01:00am -0.6 -8.9 -0.6 100 0.0 NW 33 48 18 26 1019.5 - 0.0
28/12:53am -0.6 -8.4 -0.6 100 0.0 NW 30 48 16 26 1019.7 - 0.0
28/12:30am -0.5 -7.9 -0.5 100 0.0 NW 28 41 15 22 1019.6 - 0.0
28/12:02am -0.7 -9.8 -0.7 100 0.0 NW 37 56 20 30 1019.6 - 0.0
28/12:00am -0.7 -9.4 -0.7 100 0.0 NW 35 50 19 27 1019.6 1022.3 0.0
 
Date/Time
EST
Temp
°C
App
Temp
°C
Dew
Point
Rel
Hum
%
Delta-T
°C
Wind Press
QNH
hPa
Press
MSL
hPa
Rain
since 9 am
mm
Dir
 
Spd
km/h
Gust
km/h
Spd
kts
Gust
kts
27/11:53pm -0.7 -8.9 -0.7 100 0.0 NW 32 50 17 27 1019.7 - 0.0
27/11:30pm -0.9 -10.4 -0.9 100 0.0 NW 39 54 21 29 1020.1 - 0.0
27/11:26pm -0.8 -9.5 -0.8 100 0.0 NW 35 54 19 29 1020.1 - 0.0
27/11:00pm -0.7 -9.1 -0.7 100 0.0 NNW 33 50 18 27 1020.1 - 0.0
27/10:59pm -0.7 -8.9 -0.7 100 0.0 NNW 32 50 17 27 1020.1 - 0.0
27/10:30pm -0.8 -8.2 -0.8 100 0.0 NNW 28 41 15 22 1020.5 - 0.0
27/10:00pm -1.0 -8.4 -1.0 100 0.0 NNW 28 41 15 22 1021.1 - 0.0
27/09:30pm -1.1 -7.8 -1.1 100 0.0 NNW 24 35 13 19 1021.1 - 0.0
27/09:00pm -1.2 -8.7 -1.2 100 0.0 WNW 28 37 15 20 1021.5 1024.3 0.0
27/08:30pm -1.3 -10.1 -1.3 100 0.0 WNW 35 44 19 24 1021.3 - 0.0
27/08:00pm -1.3 -10.5 -1.3 100 0.0 WNW 37 46 20 25 1021.1 - 0.0
27/07:30pm -1.3 -9.5 -1.3 100 0.0 NW 32 39 17 21 1021.1 - 0.0
27/07:00pm -1.1 -8.9 -1.1 100 0.0 NW 30 37 16 20 1021.2 - 0.0
27/06:30pm -0.5 -8.8 -0.5 100 0.0 NW 33 50 18 27 1021.2 - 0.0
27/06:00pm -0.1 -8.7 -0.1 100 0.0 NW 35 44 19 24 1020.7 1023.4 0.0
27/05:30pm -0.5 -8.8 -0.5 100 0.0 NNW 33 44 18 24 1020.3 - 0.0
27/05:00pm -0.2 -8.3 -0.2 100 0.0 NNW 32 43 17 23 1020.3 - 0.0
27/04:30pm 0.1 -8.1 0.1 100 0.0 NNW 33 43 18 23 1020.3 - 0.0
27/04:00pm 0.2 -7.8 0.2 100 0.0 NW 32 44 17 24 1020.3 - 0.0
27/03:30pm 0.2 -7.1 0.2 100 0.0 NNW 28 39 15 21 1020.7 - 0.0
27/03:00pm 0.4 -8.6 0.4 100 0.0 NW 37 48 20 26 1021.2 1023.9 0.0
27/02:30pm 0.4 -6.8 0.4 100 0.0 NW 28 39 15 21 1021.3 - 0.0
27/02:00pm 0.6 -5.9 0.6 100 0.0 NW 24 33 13 18 1021.5 - 0.0
27/01:30pm 0.9 -5.5 0.9 100 0.0 NW 24 37 13 20 1021.5 - 0.0
27/01:00pm 1.2 -3.8 1.2 100 0.0 NW 17 24 9 13 1022.2 - 0.0
27/12:30pm 0.6 -4.1 0.6 100 0.0 NW 15 22 8 12 1022.7 - 0.0
27/12:00pm 1.1 -4.3 1.1 100 0.0 NW 19 28 10 15 1023.3 1026.2 0.0
27/11:30am 0.5 -5.0 0.5 100 0.0 NW 19 26 10 14 1023.6 - 0.0
27/11:00am 0.3 -4.9 0.3 100 0.0 NNW 17 22 9 12 1023.9 - 0.0
27/10:30am 0.5 -4.3 0.5 100 0.0 NNW 15 20 8 11 1023.9 - 0.0
27/10:00am 0.4 -3.6 0.4 100 0.0 NNW 11 17 6 9 1023.9 - 0.0
27/09:30am -0.2 -4.7 -0.2 100 0.0 NNW 13 20 7 11 1023.9 - 0.0
27/09:00am -0.4 -4.9 -0.4 100 0.0 NNW 13 17 7 9 1023.9 1026.8 3.0
27/08:30am -0.5 -5.0 -0.5 100 0.0 NW 13 19 7 10 1023.8 - 3.0
27/08:00am -0.6 -4.8 -0.6 100 0.0 NNW 11 15 6 8 1023.6 - 3.0
27/07:30am -0.8 -4.6 -0.8 100 0.0 NW 9 13 5 7 1023.3 - 3.0
27/07:00am -0.5 -3.7 -0.5 100 0.0 NW 6 13 3 7 1023.3 - 3.0
27/06:30am -0.4 -4.2 -0.4 100 0.0 W 9 15 5 8 1023.3 - 3.0
27/06:00am -0.2 -5.1 -0.2 100 0.0 W 15 28 8 15 1023.1 1025.9 3.0
27/05:30am -0.1 -5.3 -0.1 100 0.0 W 17 22 9 12 1022.7 - 3.0
27/05:00am -0.1 -4.9 -0.1 100 0.0 WSW 15 20 8 11 1022.7 - 3.0
27/04:30am -0.1 -5.3 -0.1 100 0.0 SW 17 24 9 13 1022.8 - 3.0
27/04:00am 0.0 -4.5 0.0 100 0.0 SW 13 19 7 10 1022.8 - 3.0
27/03:30am 0.1 -6.0 0.1 100 0.0 SSW 22 30 12 16 1022.8 - 3.0
27/03:00am 0.1 -4.7 0.1 100 0.0 SW 15 19 8 10 1023.0 1025.8 3.0
27/02:30am 0.1 -4.3 0.1 100 0.0 SW 13 17 7 9 1023.1 - 3.0
27/02:00am 0.2 -4.2 0.2 100 0.0 WSW 13 17 7 9 1023.4 - 3.0
27/01:30am 0.2 -3.5 0.2 100 0.0 WSW 9 13 5 7 1023.4 - 3.0
27/01:00am 0.3 -4.9 0.3 100 0.0 WSW 17 19 9 10 1023.3 - 3.0
27/12:30am 0.4 -3.6 0.4 100 0.0 WSW 11 15 6 8 1023.4 - 3.0
27/12:00am 0.4 -4.8 0.4 100 0.0 WSW 17 22 9 12 1023.6 1026.4 3.0
 
Date/Time
EST
Temp
°C
App
Temp
°C
Dew
Point
Rel
Hum
%
Delta-T
°C
Wind Press
QNH
hPa
Press
MSL
hPa
Rain
since 9 am
mm
Dir
 
Spd
km/h
Gust
km/h
Spd
kts
Gust
kts
26/11:30pm 0.5 -3.9 0.5 100 0.0 W 13 19 7 10 1023.6 - 3.0
26/11:00pm 0.6 -3.8 0.6 100 0.0 W 13 19 7 10 1023.7 - 3.0
26/10:30pm 0.6 -4.1 0.6 100 0.0 W 15 20 8 11 1023.8 - 3.0
26/10:00pm 0.5 -5.6 0.5 100 0.0 W 22 28 12 15 1023.4 - 3.0
26/09:30pm 0.4 -5.3 0.4 100 0.0 W 20 26 11 14 1023.3 - 3.0
26/09:00pm 0.5 -4.3 0.5 100 0.0 W 15 24 8 13 1023.3 1026.2 3.0
26/08:30pm 0.5 -3.5 0.5 100 0.0 W 11 17 6 9 1023.3 - 3.0
26/08:00pm 0.5 -4.3 0.5 100 0.0 WNW 15 24 8 13 1023.0 - 2.8
26/07:30pm 0.5 -3.5 0.5 100 0.0 NW 11 19 6 10 1023.1 - 2.8
26/07:00pm 0.4 -4.4 0.4 100 0.0 WNW 15 22 8 12 1022.8 - 2.8
26/06:30pm 0.4 -5.1 0.4 100 0.0 WNW 19 30 10 16 1022.8 - 2.8
26/06:00pm 0.4 -4.0 0.4 100 0.0 WNW 13 20 7 11 1022.5 1025.3 2.8
26/05:30pm 0.3 -4.1 0.3 100 0.0 WNW 13 19 7 10 1022.2 - 2.8
26/05:00pm 0.2 -5.9 0.2 100 0.0 WNW 22 32 12 17 1022.0 - 2.8
26/04:30pm 0.3 -4.9 0.3 100 0.0 WNW 17 24 9 13 1021.9 - 2.8
26/04:00pm 0.2 -4.6 0.2 100 0.0 WNW 15 19 8 10 1021.7 - 2.8
26/03:30pm 0.4 -4.0 0.4 100 0.0 WNW 13 19 7 10 1021.7 - 1.2
26/03:00pm 0.4 -5.3 0.4 100 0.0 WNW 20 30 11 16 1021.4 1024.2 0.0
26/02:30pm 0.6 -6.2 0.6 100 0.0 WNW 26 37 14 20 1020.8 - 0.0
26/02:00pm 0.7 -6.9 0.7 100 0.0 WNW 30 41 16 22 1020.7 - 0.0
26/01:30pm 0.7 -7.8 0.7 100 0.0 W 35 43 19 23 1020.8 - 0.0
26/01:00pm 0.4 -6.8 0.4 100 0.0 WNW 28 37 15 20 1021.1 - 0.0
26/12:30pm 0.9 -5.5 0.9 100 0.0 WNW 24 35 13 19 1021.4 - 0.0
26/12:00pm 0.7 -6.1 0.7 100 0.0 WNW 26 35 14 19 1021.9 1024.7 0.0
26/11:30am 0.6 -6.6 0.6 100 0.0 WNW 28 41 15 22 1022.1 - 0.0
26/11:00am 0.7 -5.0 0.7 100 0.0 NW 20 30 11 16 1022.5 - 0.0
26/10:30am 0.4 -7.2 0.4 100 0.0 W 30 44 16 24 1022.5 - 0.0
26/10:00am 0.5 -6.7 0.5 100 0.0 NW 28 41 15 22 1022.1 - 0.0
26/09:30am 0.4 -6.8 0.4 100 0.0 NW 28 43 15 23 1021.8 - 0.0
26/09:00am 0.3 -7.7 0.3 100 0.0 WNW 32 44 17 24 1021.7 1024.4 3.8
26/08:30am 0.3 -7.9 0.3 100 0.0 WNW 33 44 18 24 1021.3 - 3.8
26/08:00am 0.2 -8.8 0.2 100 0.0 WNW 37 50 20 27 1020.9 - 3.8
26/07:30am 0.2 -9.2 0.2 100 0.0 WNW 39 48 21 26 1020.5 - 3.8
26/07:00am 0.3 -9.4 0.3 100 0.0 WNW 41 50 22 27 1020.2 - 3.8
26/06:30am 0.4 -8.9 0.4 100 0.0 WNW 39 46 21 25 1020.1 - 3.8
26/06:00am 0.4 -8.9 0.4 100 0.0 WNW 39 48 21 26 1020.1 1022.8 3.8
26/05:30am 0.5 -9.6 0.5 100 0.0 WNW 43 52 23 28 1019.5 - 3.8
26/05:00am 0.5 -9.2 0.5 100 0.0 NW 41 52 22 28 1019.3 - 3.8
26/04:30am 0.4 -9.3 0.4 100 0.0 NW 41 54 22 29 1019.2 - 3.6
26/04:00am 0.7 -8.2 0.7 100 0.0 NW 37 50 20 27 1019.6 - 3.6
26/03:47am 0.7 -7.8 0.7 100 0.0 NW 35 56 19 30 1019.6 - 3.6
26/03:30am 0.8 -7.7 0.8 100 0.0 NNW 35 48 19 26 1019.7 - 3.6
26/03:00am 0.9 -8.4 0.9 100 0.0 NNW 39 54 21 29 1019.6 1022.3 3.6
26/02:30am 0.6 -9.7 0.6 100 0.0 NW 44 59 24 32 1019.9 - 3.6

Other Formats:

Comma delimited format used in spreadsheet applications
http://www.bom.gov.au/fwo/IDV60801/IDV60801.94903.axf

JavaScript Object Notation format (JSON) in row-major order
http://www.bom.gov.au/fwo/IDV60801/IDV60801.94903.json